sensor_id;sensor_type;location;lat;lon;timestamp;P1;durP1;ratioP1;P2;durP2;ratioP2
18334;SDS011;9293;49.524;10.964;2022-12-18T00:01:27;69.95;;;32.88;;
18334;SDS011;9293;49.524;10.964;2022-12-18T00:03:57;72.88;;;36.03;;
18334;SDS011;9293;49.524;10.964;2022-12-18T00:06:26;70.18;;;33.97;;
18334;SDS011;9293;49.524;10.964;2022-12-18T00:08:55;75.75;;;35.58;;
18334;SDS011;9293;49.524;10.964;2022-12-18T00:11:26;71.93;;;34.92;;
18334;SDS011;9293;49.524;10.964;2022-12-18T00:13:57;77.43;;;34.75;;
18334;SDS011;9293;49.524;10.964;2022-12-18T00:16:29;79.53;;;36.72;;
18334;SDS011;9293;49.524;10.964;2022-12-18T00:19:02;73.95;;;36.83;;
18334;SDS011;9293;49.524;10.964;2022-12-18T00:21:31;76.68;;;35.65;;
18334;SDS011;9293;49.524;10.964;2022-12-18T00:24:00;74.97;;;35.75;;
18334;SDS011;9293;49.524;10.964;2022-12-18T00:26:29;75.88;;;35.53;;
18334;SDS011;9293;49.524;10.964;2022-12-18T00:29:10;72.35;;;36.28;;
18334;SDS011;9293;49.524;10.964;2022-12-18T00:31:42;78.72;;;35.05;;
18334;SDS011;9293;49.524;10.964;2022-12-18T00:34:11;78.18;;;35.35;;
18334;SDS011;9293;49.524;10.964;2022-12-18T00:36:40;72.95;;;33.45;;
18334;SDS011;9293;49.524;10.964;2022-12-18T00:39:09;82.97;;;36.78;;
18334;SDS011;9293;49.524;10.964;2022-12-18T00:41:38;72.55;;;35.60;;
18334;SDS011;9293;49.524;10.964;2022-12-18T00:44:25;74.40;;;36.67;;
18334;SDS011;9293;49.524;10.964;2022-12-18T00:46:53;79.65;;;36.53;;
18334;SDS011;9293;49.524;10.964;2022-12-18T00:49:20;73.47;;;34.28;;
18334;SDS011;9293;49.524;10.964;2022-12-18T00:51:48;77.97;;;35.95;;
18334;SDS011;9293;49.524;10.964;2022-12-18T00:54:16;85.32;;;37.45;;
18334;SDS011;9293;49.524;10.964;2022-12-18T00:56:45;77.60;;;38.13;;
18334;SDS011;9293;49.524;10.964;2022-12-18T00:59:25;76.07;;;36.35;;
18334;SDS011;9293;49.524;10.964;2022-12-18T01:01:53;84.13;;;38.20;;
18334;SDS011;9293;49.524;10.964;2022-12-18T01:04:21;75.22;;;37.13;;
18334;SDS011;9293;49.524;10.964;2022-12-18T01:06:49;76.97;;;36.53;;
18334;SDS011;9293;49.524;10.964;2022-12-18T01:09:17;79.38;;;36.60;;
18334;SDS011;9293;49.524;10.964;2022-12-18T01:11:45;88.47;;;39.95;;
18334;SDS011;9293;49.524;10.964;2022-12-18T01:14:13;84.30;;;40.92;;
18334;SDS011;9293;49.524;10.964;2022-12-18T01:16:41;91.65;;;42.20;;
18334;SDS011;9293;49.524;10.964;2022-12-18T01:19:09;91.88;;;42.75;;
18334;SDS011;9293;49.524;10.964;2022-12-18T01:21:37;86.10;;;40.50;;
18334;SDS011;9293;49.524;10.964;2022-12-18T01:24:05;84.70;;;40.08;;
18334;SDS011;9293;49.524;10.964;2022-12-18T01:26:34;88.82;;;42.15;;
18334;SDS011;9293;49.524;10.964;2022-12-18T01:29:02;93.65;;;40.13;;
18334;SDS011;9293;49.524;10.964;2022-12-18T01:31:31;86.05;;;39.05;;
18334;SDS011;9293;49.524;10.964;2022-12-18T01:34:01;92.18;;;40.42;;
18334;SDS011;9293;49.524;10.964;2022-12-18T01:36:34;91.75;;;40.13;;
18334;SDS011;9293;49.524;10.964;2022-12-18T01:39:05;94.47;;;40.38;;
18334;SDS011;9293;49.524;10.964;2022-12-18T01:41:35;92.13;;;40.50;;
18334;SDS011;9293;49.524;10.964;2022-12-18T01:47:41;95.50;;;41.65;;
18334;SDS011;9293;49.524;10.964;2022-12-18T01:50:17;113.75;;;51.78;;
18334;SDS011;9293;49.524;10.964;2022-12-18T01:55:26;86.43;;;41.17;;
18334;SDS011;9293;49.524;10.964;2022-12-18T01:57:57;90.63;;;40.83;;
18334;SDS011;9293;49.524;10.964;2022-12-18T02:00:27;90.63;;;42.30;;
18334;SDS011;9293;49.524;10.964;2022-12-18T02:02:55;82.57;;;39.78;;
18334;SDS011;9293;49.524;10.964;2022-12-18T02:05:39;92.50;;;40.38;;
18334;SDS011;9293;49.524;10.964;2022-12-18T02:13:46;102.80;;;42.65;;
18334;SDS011;9293;49.524;10.964;2022-12-18T02:17:00;87.20;;;40.28;;
18334;SDS011;9293;49.524;10.964;2022-12-18T02:25:32;93.75;;;41.63;;
18334;SDS011;9293;49.524;10.964;2022-12-18T02:28:21;121.72;;;43.53;;
18334;SDS011;9293;49.524;10.964;2022-12-18T02:31:01;103.40;;;43.17;;
18334;SDS011;9293;49.524;10.964;2022-12-18T02:33:33;112.32;;;43.70;;
18334;SDS011;9293;49.524;10.964;2022-12-18T02:36:04;113.80;;;42.60;;
18334;SDS011;9293;49.524;10.964;2022-12-18T02:38:40;116.18;;;43.08;;
18334;SDS011;9293;49.524;10.964;2022-12-18T02:41:12;127.88;;;47.95;;
18334;SDS011;9293;49.524;10.964;2022-12-18T02:43:58;163.50;;;52.30;;
18334;SDS011;9293;49.524;10.964;2022-12-18T02:46:32;181.88;;;51.65;;
18334;SDS011;9293;49.524;10.964;2022-12-18T02:49:24;142.52;;;48.78;;
18334;SDS011;9293;49.524;10.964;2022-12-18T02:52:08;128.05;;;48.55;;
18334;SDS011;9293;49.524;10.964;2022-12-18T03:01:01;127.78;;;48.00;;
18334;SDS011;9293;49.524;10.964;2022-12-18T03:06:02;116.65;;;45.35;;
18334;SDS011;9293;49.524;10.964;2022-12-18T03:08:43;122.68;;;47.75;;
18334;SDS011;9293;49.524;10.964;2022-12-18T03:11:17;116.63;;;44.78;;
18334;SDS011;9293;49.524;10.964;2022-12-18T03:14:07;114.32;;;45.65;;
18334;SDS011;9293;49.524;10.964;2022-12-18T03:16:38;110.30;;;42.70;;
18334;SDS011;9293;49.524;10.964;2022-12-18T03:19:16;104.22;;;42.28;;
18334;SDS011;9293;49.524;10.964;2022-12-18T03:21:51;100.53;;;40.55;;
18334;SDS011;9293;49.524;10.964;2022-12-18T03:24:24;111.68;;;43.75;;
18334;SDS011;9293;49.524;10.964;2022-12-18T03:26:57;102.15;;;44.58;;
18334;SDS011;9293;49.524;10.964;2022-12-18T03:32:24;104.40;;;42.75;;
18334;SDS011;9293;49.524;10.964;2022-12-18T03:35:02;102.57;;;40.05;;
18334;SDS011;9293;49.524;10.964;2022-12-18T03:37:35;102.03;;;42.65;;
18334;SDS011;9293;49.524;10.964;2022-12-18T03:40:04;106.65;;;43.75;;
18334;SDS011;9293;49.524;10.964;2022-12-18T03:42:52;102.13;;;42.23;;
18334;SDS011;9293;49.524;10.964;2022-12-18T03:45:34;98.63;;;39.38;;
18334;SDS011;9293;49.524;10.964;2022-12-18T03:48:06;83.35;;;33.30;;
18334;SDS011;9293;49.524;10.964;2022-12-18T03:51:02;82.30;;;38.90;;
18334;SDS011;9293;49.524;10.964;2022-12-18T03:53:43;99.55;;;38.25;;
18334;SDS011;9293;49.524;10.964;2022-12-18T03:56:29;86.15;;;38.15;;
18334;SDS011;9293;49.524;10.964;2022-12-18T03:59:01;73.45;;;32.78;;
18334;SDS011;9293;49.524;10.964;2022-12-18T04:01:33;70.35;;;31.17;;
18334;SDS011;9293;49.524;10.964;2022-12-18T04:04:04;71.53;;;31.15;;
18334;SDS011;9293;49.524;10.964;2022-12-18T04:06:37;70.95;;;31.67;;
18334;SDS011;9293;49.524;10.964;2022-12-18T04:09:11;67.75;;;30.80;;
18334;SDS011;9293;49.524;10.964;2022-12-18T04:11:45;55.47;;;26.58;;
18334;SDS011;9293;49.524;10.964;2022-12-18T04:14:15;48.40;;;23.20;;
18334;SDS011;9293;49.524;10.964;2022-12-18T04:16:47;44.42;;;22.58;;
18334;SDS011;9293;49.524;10.964;2022-12-18T04:19:18;44.42;;;20.35;;
18334;SDS011;9293;49.524;10.964;2022-12-18T04:21:49;45.67;;;20.73;;
18334;SDS011;9293;49.524;10.964;2022-12-18T04:24:17;39.25;;;19.38;;
18334;SDS011;9293;49.524;10.964;2022-12-18T04:26:56;37.75;;;18.58;;
18334;SDS011;9293;49.524;10.964;2022-12-18T04:29:30;44.22;;;18.92;;
18334;SDS011;9293;49.524;10.964;2022-12-18T04:31:58;37.58;;;17.67;;
18334;SDS011;9293;49.524;10.964;2022-12-18T04:34:28;40.83;;;18.87;;
18334;SDS011;9293;49.524;10.964;2022-12-18T04:36:57;39.55;;;18.98;;
18334;SDS011;9293;49.524;10.964;2022-12-18T04:39:25;39.60;;;18.90;;
18334;SDS011;9293;49.524;10.964;2022-12-18T04:42:01;41.53;;;18.35;;
18334;SDS011;9293;49.524;10.964;2022-12-18T04:46:57;40.97;;;18.70;;
18334;SDS011;9293;49.524;10.964;2022-12-18T04:49:24;38.83;;;17.65;;
18334;SDS011;9293;49.524;10.964;2022-12-18T04:51:52;43.92;;;20.17;;
18334;SDS011;9293;49.524;10.964;2022-12-18T04:54:20;44.35;;;17.95;;
18334;SDS011;9293;49.524;10.964;2022-12-18T04:56:48;39.08;;;18.15;;
18334;SDS011;9293;49.524;10.964;2022-12-18T04:59:16;39.35;;;19.17;;
18334;SDS011;9293;49.524;10.964;2022-12-18T05:01:44;44.03;;;19.30;;
18334;SDS011;9293;49.524;10.964;2022-12-18T05:04:13;36.63;;;18.83;;
18334;SDS011;9293;49.524;10.964;2022-12-18T05:06:45;40.75;;;18.45;;
18334;SDS011;9293;49.524;10.964;2022-12-18T05:11:47;41.42;;;16.83;;
18334;SDS011;9293;49.524;10.964;2022-12-18T05:14:15;37.08;;;17.98;;
18334;SDS011;9293;49.524;10.964;2022-12-18T05:16:43;42.35;;;19.23;;
18334;SDS011;9293;49.524;10.964;2022-12-18T05:19:11;41.08;;;19.73;;
18334;SDS011;9293;49.524;10.964;2022-12-18T05:21:39;43.42;;;20.02;;
18334;SDS011;9293;49.524;10.964;2022-12-18T05:24:07;39.53;;;18.60;;
18334;SDS011;9293;49.524;10.964;2022-12-18T05:26:35;41.45;;;20.88;;
18334;SDS011;9293;49.524;10.964;2022-12-18T05:29:03;43.38;;;19.77;;
18334;SDS011;9293;49.524;10.964;2022-12-18T05:31:31;40.53;;;19.60;;
18334;SDS011;9293;49.524;10.964;2022-12-18T05:34:05;49.25;;;20.55;;
18334;SDS011;9293;49.524;10.964;2022-12-18T05:36:33;42.35;;;18.85;;
18334;SDS011;9293;49.524;10.964;2022-12-18T05:39:01;44.63;;;20.58;;
18334;SDS011;9293;49.524;10.964;2022-12-18T05:41:31;44.72;;;20.25;;
18334;SDS011;9293;49.524;10.964;2022-12-18T05:43:59;42.22;;;20.35;;
18334;SDS011;9293;49.524;10.964;2022-12-18T05:46:27;42.42;;;20.50;;
18334;SDS011;9293;49.524;10.964;2022-12-18T05:48:58;44.08;;;20.95;;
18334;SDS011;9293;49.524;10.964;2022-12-18T05:51:28;43.95;;;20.33;;
18334;SDS011;9293;49.524;10.964;2022-12-18T05:53:56;43.03;;;20.33;;
18334;SDS011;9293;49.524;10.964;2022-12-18T05:56:24;50.10;;;21.88;;
18334;SDS011;9293;49.524;10.964;2022-12-18T05:58:52;46.35;;;21.63;;
18334;SDS011;9293;49.524;10.964;2022-12-18T06:01:22;43.05;;;20.75;;
18334;SDS011;9293;49.524;10.964;2022-12-18T06:03:52;44.00;;;20.27;;
18334;SDS011;9293;49.524;10.964;2022-12-18T06:06:25;47.28;;;21.90;;
18334;SDS011;9293;49.524;10.964;2022-12-18T06:08:55;46.90;;;21.83;;
18334;SDS011;9293;49.524;10.964;2022-12-18T06:11:24;48.88;;;21.40;;
18334;SDS011;9293;49.524;10.964;2022-12-18T06:13:54;47.15;;;21.65;;
18334;SDS011;9293;49.524;10.964;2022-12-18T06:16:26;42.13;;;20.98;;
18334;SDS011;9293;49.524;10.964;2022-12-18T06:18:56;49.00;;;22.63;;
18334;SDS011;9293;49.524;10.964;2022-12-18T06:21:26;42.60;;;20.08;;
18334;SDS011;9293;49.524;10.964;2022-12-18T06:23:58;46.80;;;21.60;;
18334;SDS011;9293;49.524;10.964;2022-12-18T06:26:36;47.03;;;20.83;;
18334;SDS011;9293;49.524;10.964;2022-12-18T06:29:06;47.78;;;21.92;;
18334;SDS011;9293;49.524;10.964;2022-12-18T06:31:34;57.28;;;27.52;;
18334;SDS011;9293;49.524;10.964;2022-12-18T06:34:02;54.05;;;23.13;;
18334;SDS011;9293;49.524;10.964;2022-12-18T06:36:31;46.83;;;22.00;;
18334;SDS011;9293;49.524;10.964;2022-12-18T06:38:59;47.75;;;21.67;;
18334;SDS011;9293;49.524;10.964;2022-12-18T06:41:27;49.97;;;21.40;;
18334;SDS011;9293;49.524;10.964;2022-12-18T06:43:55;44.88;;;21.20;;
18334;SDS011;9293;49.524;10.964;2022-12-18T06:46:25;47.70;;;21.27;;
18334;SDS011;9293;49.524;10.964;2022-12-18T06:48:53;47.22;;;20.90;;
18334;SDS011;9293;49.524;10.964;2022-12-18T06:51:22;51.33;;;21.77;;
18334;SDS011;9293;49.524;10.964;2022-12-18T06:53:52;46.45;;;21.58;;
18334;SDS011;9293;49.524;10.964;2022-12-18T06:56:20;49.10;;;22.38;;
18334;SDS011;9293;49.524;10.964;2022-12-18T06:58:48;41.40;;;18.67;;
18334;SDS011;9293;49.524;10.964;2022-12-18T07:01:17;46.10;;;21.45;;
18334;SDS011;9293;49.524;10.964;2022-12-18T07:03:46;48.53;;;20.73;;
18334;SDS011;9293;49.524;10.964;2022-12-18T07:06:15;51.63;;;20.92;;
18334;SDS011;9293;49.524;10.964;2022-12-18T07:08:45;46.10;;;21.50;;
18334;SDS011;9293;49.524;10.964;2022-12-18T07:11:14;45.22;;;20.17;;
18334;SDS011;9293;49.524;10.964;2022-12-18T07:13:43;48.22;;;20.25;;
18334;SDS011;9293;49.524;10.964;2022-12-18T07:16:12;45.72;;;20.00;;
18334;SDS011;9293;49.524;10.964;2022-12-18T07:18:50;40.58;;;19.80;;
18334;SDS011;9293;49.524;10.964;2022-12-18T07:21:19;48.35;;;20.30;;
18334;SDS011;9293;49.524;10.964;2022-12-18T07:23:47;44.28;;;19.88;;
18334;SDS011;9293;49.524;10.964;2022-12-18T07:26:19;42.05;;;18.20;;
18334;SDS011;9293;49.524;10.964;2022-12-18T07:28:50;43.83;;;20.80;;
18334;SDS011;9293;49.524;10.964;2022-12-18T07:31:25;44.10;;;20.65;;
18334;SDS011;9293;49.524;10.964;2022-12-18T07:33:54;48.40;;;19.60;;
18334;SDS011;9293;49.524;10.964;2022-12-18T07:36:22;38.63;;;18.90;;
18334;SDS011;9293;49.524;10.964;2022-12-18T07:38:50;48.38;;;21.00;;
18334;SDS011;9293;49.524;10.964;2022-12-18T07:41:20;42.67;;;20.58;;
18334;SDS011;9293;49.524;10.964;2022-12-18T07:43:48;43.40;;;19.40;;
18334;SDS011;9293;49.524;10.964;2022-12-18T07:46:16;39.03;;;18.60;;
18334;SDS011;9293;49.524;10.964;2022-12-18T07:48:45;40.05;;;18.45;;
18334;SDS011;9293;49.524;10.964;2022-12-18T07:51:15;42.78;;;20.02;;
18334;SDS011;9293;49.524;10.964;2022-12-18T07:53:45;46.60;;;19.73;;
18334;SDS011;9293;49.524;10.964;2022-12-18T07:56:17;40.95;;;19.40;;
18334;SDS011;9293;49.524;10.964;2022-12-18T07:58:55;40.08;;;19.23;;
18334;SDS011;9293;49.524;10.964;2022-12-18T08:01:27;44.05;;;18.92;;
18334;SDS011;9293;49.524;10.964;2022-12-18T08:03:56;44.53;;;19.42;;
18334;SDS011;9293;49.524;10.964;2022-12-18T08:06:25;44.33;;;18.90;;
18334;SDS011;9293;49.524;10.964;2022-12-18T08:08:53;42.92;;;19.55;;
18334;SDS011;9293;49.524;10.964;2022-12-18T08:11:23;42.15;;;20.15;;
18334;SDS011;9293;49.524;10.964;2022-12-18T08:13:52;40.17;;;18.85;;
18334;SDS011;9293;49.524;10.964;2022-12-18T08:16:21;41.65;;;19.23;;
18334;SDS011;9293;49.524;10.964;2022-12-18T08:18:51;39.38;;;17.67;;
18334;SDS011;9293;49.524;10.964;2022-12-18T08:21:21;38.65;;;18.08;;
18334;SDS011;9293;49.524;10.964;2022-12-18T08:23:52;38.30;;;18.13;;
18334;SDS011;9293;49.524;10.964;2022-12-18T08:26:21;40.28;;;19.00;;
18334;SDS011;9293;49.524;10.964;2022-12-18T08:29:23;40.50;;;19.42;;
18334;SDS011;9293;49.524;10.964;2022-12-18T08:32:27;39.20;;;19.20;;
18334;SDS011;9293;49.524;10.964;2022-12-18T08:35:59;43.15;;;18.45;;
18334;SDS011;9293;49.524;10.964;2022-12-18T08:38:27;42.70;;;19.77;;
18334;SDS011;9293;49.524;10.964;2022-12-18T08:41:06;40.92;;;19.20;;
18334;SDS011;9293;49.524;10.964;2022-12-18T08:43:39;39.72;;;19.60;;
18334;SDS011;9293;49.524;10.964;2022-12-18T08:46:26;42.50;;;20.38;;
18334;SDS011;9293;49.524;10.964;2022-12-18T08:48:58;43.03;;;20.58;;
18334;SDS011;9293;49.524;10.964;2022-12-18T08:51:26;40.78;;;19.10;;
18334;SDS011;9293;49.524;10.964;2022-12-18T08:53:57;44.25;;;20.80;;
18334;SDS011;9293;49.524;10.964;2022-12-18T08:56:25;41.50;;;20.42;;
18334;SDS011;9293;49.524;10.964;2022-12-18T08:58:53;41.03;;;20.20;;
18334;SDS011;9293;49.524;10.964;2022-12-18T09:01:22;42.25;;;21.15;;
18334;SDS011;9293;49.524;10.964;2022-12-18T09:03:50;42.88;;;20.42;;
18334;SDS011;9293;49.524;10.964;2022-12-18T09:06:19;41.60;;;19.63;;
18334;SDS011;9293;49.524;10.964;2022-12-18T09:08:49;39.30;;;19.10;;
18334;SDS011;9293;49.524;10.964;2022-12-18T09:11:19;34.10;;;18.63;;
18334;SDS011;9293;49.524;10.964;2022-12-18T09:13:53;41.50;;;19.73;;
18334;SDS011;9293;49.524;10.964;2022-12-18T09:16:22;44.75;;;20.02;;
18334;SDS011;9293;49.524;10.964;2022-12-18T09:18:57;42.33;;;20.42;;
18334;SDS011;9293;49.524;10.964;2022-12-18T09:21:30;38.83;;;19.58;;
18334;SDS011;9293;49.524;10.964;2022-12-18T09:24:03;43.13;;;19.70;;
18334;SDS011;9293;49.524;10.964;2022-12-18T09:26:39;36.90;;;19.67;;
18334;SDS011;9293;49.524;10.964;2022-12-18T09:29:08;40.63;;;19.98;;
18334;SDS011;9293;49.524;10.964;2022-12-18T09:31:36;41.30;;;20.48;;
18334;SDS011;9293;49.524;10.964;2022-12-18T09:34:05;39.20;;;19.88;;
18334;SDS011;9293;49.524;10.964;2022-12-18T09:36:33;34.50;;;17.65;;
18334;SDS011;9293;49.524;10.964;2022-12-18T09:39:02;40.00;;;18.95;;
18334;SDS011;9293;49.524;10.964;2022-12-18T09:44:14;40.40;;;19.50;;
18334;SDS011;9293;49.524;10.964;2022-12-18T09:46:47;39.10;;;20.02;;
18334;SDS011;9293;49.524;10.964;2022-12-18T09:49:21;41.35;;;19.38;;
18334;SDS011;9293;49.524;10.964;2022-12-18T09:52:04;38.25;;;19.42;;
18334;SDS011;9293;49.524;10.964;2022-12-18T09:54:53;34.47;;;18.67;;
18334;SDS011;9293;49.524;10.964;2022-12-18T09:57:33;39.80;;;20.00;;
18334;SDS011;9293;49.524;10.964;2022-12-18T10:02:38;35.42;;;17.70;;
18334;SDS011;9293;49.524;10.964;2022-12-18T10:05:13;34.25;;;17.70;;
18334;SDS011;9293;49.524;10.964;2022-12-18T10:07:49;32.50;;;16.77;;
18334;SDS011;9293;49.524;10.964;2022-12-18T10:13:21;33.03;;;17.35;;
18334;SDS011;9293;49.524;10.964;2022-12-18T10:21:45;30.45;;;15.95;;
18334;SDS011;9293;49.524;10.964;2022-12-18T10:24:24;28.00;;;14.88;;
18334;SDS011;9293;49.524;10.964;2022-12-18T10:27:09;31.80;;;16.58;;
18334;SDS011;9293;49.524;10.964;2022-12-18T10:29:42;29.80;;;16.38;;
18334;SDS011;9293;49.524;10.964;2022-12-18T10:32:19;34.78;;;18.00;;
18334;SDS011;9293;49.524;10.964;2022-12-18T10:34:53;33.55;;;17.17;;
18334;SDS011;9293;49.524;10.964;2022-12-18T10:37:27;29.95;;;16.98;;
18334;SDS011;9293;49.524;10.964;2022-12-18T10:40:12;36.78;;;18.33;;
18334;SDS011;9293;49.524;10.964;2022-12-18T10:43:01;33.40;;;16.90;;
18334;SDS011;9293;49.524;10.964;2022-12-18T10:45:39;28.48;;;16.73;;
18334;SDS011;9293;49.524;10.964;2022-12-18T10:48:17;32.85;;;17.75;;
18334;SDS011;9293;49.524;10.964;2022-12-18T10:50:47;29.88;;;16.90;;
18334;SDS011;9293;49.524;10.964;2022-12-18T10:53:37;34.23;;;17.63;;
18334;SDS011;9293;49.524;10.964;2022-12-18T10:56:06;32.97;;;18.33;;
18334;SDS011;9293;49.524;10.964;2022-12-18T10:58:35;31.20;;;16.95;;
18334;SDS011;9293;49.524;10.964;2022-12-18T11:03:58;34.05;;;17.83;;
18334;SDS011;9293;49.524;10.964;2022-12-18T11:06:28;32.22;;;17.52;;
18334;SDS011;9293;49.524;10.964;2022-12-18T11:11:40;30.50;;;16.95;;
18334;SDS011;9293;49.524;10.964;2022-12-18T11:15:02;26.98;;;15.60;;
18334;SDS011;9293;49.524;10.964;2022-12-18T11:17:24;37.22;;;18.85;;
18334;SDS011;9293;49.524;10.964;2022-12-18T11:19:59;29.38;;;16.00;;
18334;SDS011;9293;49.524;10.964;2022-12-18T11:22:30;30.23;;;17.13;;
18334;SDS011;9293;49.524;10.964;2022-12-18T11:25:00;29.85;;;16.20;;
18334;SDS011;9293;49.524;10.964;2022-12-18T11:27:55;31.08;;;16.08;;
18334;SDS011;9293;49.524;10.964;2022-12-18T11:30:30;29.42;;;16.10;;
18334;SDS011;9293;49.524;10.964;2022-12-18T11:33:06;30.00;;;16.90;;
18334;SDS011;9293;49.524;10.964;2022-12-18T11:35:48;29.17;;;15.48;;
18334;SDS011;9293;49.524;10.964;2022-12-18T11:38:29;32.17;;;15.93;;
18334;SDS011;9293;49.524;10.964;2022-12-18T11:41:05;27.95;;;15.27;;
18334;SDS011;9293;49.524;10.964;2022-12-18T11:43:43;31.05;;;16.02;;
18334;SDS011;9293;49.524;10.964;2022-12-18T11:46:19;28.60;;;15.43;;
18334;SDS011;9293;49.524;10.964;2022-12-18T11:49:06;32.17;;;15.77;;
18334;SDS011;9293;49.524;10.964;2022-12-18T11:51:50;29.98;;;16.23;;
18334;SDS011;9293;49.524;10.964;2022-12-18T11:54:32;30.55;;;16.65;;
18334;SDS011;9293;49.524;10.964;2022-12-18T11:57:06;36.65;;;16.50;;
18334;SDS011;9293;49.524;10.964;2022-12-18T12:00:02;30.52;;;16.85;;
18334;SDS011;9293;49.524;10.964;2022-12-18T12:05:57;28.25;;;15.70;;
18334;SDS011;9293;49.524;10.964;2022-12-18T12:11:11;28.35;;;15.63;;
18334;SDS011;9293;49.524;10.964;2022-12-18T12:13:59;32.55;;;16.42;;
18334;SDS011;9293;49.524;10.964;2022-12-18T12:16:43;30.25;;;15.45;;
18334;SDS011;9293;49.524;10.964;2022-12-18T12:19:36;30.20;;;16.52;;
18334;SDS011;9293;49.524;10.964;2022-12-18T12:22:50;29.98;;;15.45;;
18334;SDS011;9293;49.524;10.964;2022-12-18T12:28:24;32.40;;;16.33;;
18334;SDS011;9293;49.524;10.964;2022-12-18T12:31:26;31.42;;;17.45;;
18334;SDS011;9293;49.524;10.964;2022-12-18T12:39:59;33.10;;;16.77;;
18334;SDS011;9293;49.524;10.964;2022-12-18T12:42:52;31.25;;;16.98;;
18334;SDS011;9293;49.524;10.964;2022-12-18T12:53:56;31.23;;;17.15;;
18334;SDS011;9293;49.524;10.964;2022-12-18T12:56:45;30.45;;;16.52;;
18334;SDS011;9293;49.524;10.964;2022-12-18T13:07:57;30.25;;;15.82;;
18334;SDS011;9293;49.524;10.964;2022-12-18T13:10:35;31.75;;;17.52;;
18334;SDS011;9293;49.524;10.964;2022-12-18T13:15:43;29.27;;;16.50;;
18334;SDS011;9293;49.524;10.964;2022-12-18T13:18:24;32.33;;;17.40;;
18334;SDS011;9293;49.524;10.964;2022-12-18T13:23:29;30.52;;;15.80;;
18334;SDS011;9293;49.524;10.964;2022-12-18T13:28:53;33.53;;;17.10;;
18334;SDS011;9293;49.524;10.964;2022-12-18T13:34:18;33.45;;;18.08;;
18334;SDS011;9293;49.524;10.964;2022-12-18T13:36:53;33.85;;;19.55;;
18334;SDS011;9293;49.524;10.964;2022-12-18T13:39:37;34.85;;;17.92;;
18334;SDS011;9293;49.524;10.964;2022-12-18T13:44:36;33.00;;;18.30;;
18334;SDS011;9293;49.524;10.964;2022-12-18T13:47:27;32.90;;;18.55;;
18334;SDS011;9293;49.524;10.964;2022-12-18T13:50:01;33.55;;;18.33;;
18334;SDS011;9293;49.524;10.964;2022-12-18T13:52:37;32.00;;;17.30;;
18334;SDS011;9293;49.524;10.964;2022-12-18T13:55:07;33.38;;;18.10;;
18334;SDS011;9293;49.524;10.964;2022-12-18T13:57:46;31.75;;;17.83;;
18334;SDS011;9293;49.524;10.964;2022-12-18T14:00:28;32.90;;;18.42;;
18334;SDS011;9293;49.524;10.964;2022-12-18T14:03:15;28.88;;;16.98;;
18334;SDS011;9293;49.524;10.964;2022-12-18T14:06:05;33.42;;;18.13;;
18334;SDS011;9293;49.524;10.964;2022-12-18T14:08:39;32.13;;;17.98;;
18334;SDS011;9293;49.524;10.964;2022-12-18T14:11:17;34.33;;;17.85;;
18334;SDS011;9293;49.524;10.964;2022-12-18T14:13:52;31.98;;;17.45;;
18334;SDS011;9293;49.524;10.964;2022-12-18T14:16:20;31.48;;;18.73;;
18334;SDS011;9293;49.524;10.964;2022-12-18T14:18:53;32.75;;;18.80;;
18334;SDS011;9293;49.524;10.964;2022-12-18T14:21:52;34.80;;;17.98;;
18334;SDS011;9293;49.524;10.964;2022-12-18T14:24:21;35.38;;;17.00;;
18334;SDS011;9293;49.524;10.964;2022-12-18T14:26:49;32.75;;;17.23;;
18334;SDS011;9293;49.524;10.964;2022-12-18T14:29:25;33.72;;;16.95;;
18334;SDS011;9293;49.524;10.964;2022-12-18T14:32:05;33.00;;;17.27;;
18334;SDS011;9293;49.524;10.964;2022-12-18T14:34:45;37.95;;;20.27;;
18334;SDS011;9293;49.524;10.964;2022-12-18T14:37:15;33.80;;;17.50;;
18334;SDS011;9293;49.524;10.964;2022-12-18T14:42:21;40.78;;;22.48;;
18334;SDS011;9293;49.524;10.964;2022-12-18T14:44:49;40.42;;;21.10;;
18334;SDS011;9293;49.524;10.964;2022-12-18T14:47:37;35.33;;;18.52;;
18334;SDS011;9293;49.524;10.964;2022-12-18T14:50:11;38.47;;;19.42;;
18334;SDS011;9293;49.524;10.964;2022-12-18T14:52:41;41.30;;;21.25;;
18334;SDS011;9293;49.524;10.964;2022-12-18T14:55:16;41.45;;;20.27;;
18334;SDS011;9293;49.524;10.964;2022-12-18T14:57:45;44.72;;;21.83;;
18334;SDS011;9293;49.524;10.964;2022-12-18T15:00:20;47.22;;;25.65;;
18334;SDS011;9293;49.524;10.964;2022-12-18T15:02:54;35.00;;;18.77;;
18334;SDS011;9293;49.524;10.964;2022-12-18T15:05:28;35.90;;;20.33;;
18334;SDS011;9293;49.524;10.964;2022-12-18T15:07:58;38.38;;;19.70;;
18334;SDS011;9293;49.524;10.964;2022-12-18T15:10:28;33.50;;;19.33;;
18334;SDS011;9293;49.524;10.964;2022-12-18T15:21:52;32.55;;;18.27;;
18334;SDS011;9293;49.524;10.964;2022-12-18T15:24:23;32.45;;;17.63;;
18334;SDS011;9293;49.524;10.964;2022-12-18T15:26:54;34.72;;;18.80;;
18334;SDS011;9293;49.524;10.964;2022-12-18T15:29:23;39.92;;;21.02;;
18334;SDS011;9293;49.524;10.964;2022-12-18T15:32:00;33.85;;;19.63;;
18334;SDS011;9293;49.524;10.964;2022-12-18T15:34:30;42.30;;;22.90;;
18334;SDS011;9293;49.524;10.964;2022-12-18T15:37:01;41.42;;;22.17;;
18334;SDS011;9293;49.524;10.964;2022-12-18T15:39:29;42.83;;;23.80;;
18334;SDS011;9293;49.524;10.964;2022-12-18T15:41:57;41.67;;;22.40;;
18334;SDS011;9293;49.524;10.964;2022-12-18T15:44:44;40.25;;;19.65;;
18334;SDS011;9293;49.524;10.964;2022-12-18T15:47:12;36.38;;;19.30;;
18334;SDS011;9293;49.524;10.964;2022-12-18T15:49:41;34.75;;;19.17;;
18334;SDS011;9293;49.524;10.964;2022-12-18T15:52:09;32.05;;;18.63;;
18334;SDS011;9293;49.524;10.964;2022-12-18T15:54:40;30.13;;;15.55;;
18334;SDS011;9293;49.524;10.964;2022-12-18T15:57:27;32.47;;;17.45;;
18334;SDS011;9293;49.524;10.964;2022-12-18T15:59:55;30.77;;;17.20;;
18334;SDS011;9293;49.524;10.964;2022-12-18T16:02:25;30.27;;;18.05;;
18334;SDS011;9293;49.524;10.964;2022-12-18T16:04:57;35.00;;;18.60;;
18334;SDS011;9293;49.524;10.964;2022-12-18T16:07:25;31.23;;;17.23;;
18334;SDS011;9293;49.524;10.964;2022-12-18T16:09:56;27.88;;;16.42;;
18334;SDS011;9293;49.524;10.964;2022-12-18T16:12:27;31.17;;;16.33;;
18334;SDS011;9293;49.524;10.964;2022-12-18T16:14:55;31.92;;;17.13;;
18334;SDS011;9293;49.524;10.964;2022-12-18T16:17:23;34.80;;;17.13;;
18334;SDS011;9293;49.524;10.964;2022-12-18T16:19:52;29.70;;;15.65;;
18334;SDS011;9293;49.524;10.964;2022-12-18T16:22:21;30.02;;;15.85;;
18334;SDS011;9293;49.524;10.964;2022-12-18T16:24:51;32.03;;;17.92;;
18334;SDS011;9293;49.524;10.964;2022-12-18T16:27:21;32.30;;;18.00;;
18334;SDS011;9293;49.524;10.964;2022-12-18T16:29:50;33.90;;;17.40;;
18334;SDS011;9293;49.524;10.964;2022-12-18T16:32:18;35.15;;;17.27;;
18334;SDS011;9293;49.524;10.964;2022-12-18T16:34:49;36.85;;;17.67;;
18334;SDS011;9293;49.524;10.964;2022-12-18T16:37:17;34.20;;;17.50;;
18334;SDS011;9293;49.524;10.964;2022-12-18T16:39:46;34.53;;;17.90;;
18334;SDS011;9293;49.524;10.964;2022-12-18T16:42:16;37.20;;;19.05;;
18334;SDS011;9293;49.524;10.964;2022-12-18T16:44:46;36.97;;;18.08;;
18334;SDS011;9293;49.524;10.964;2022-12-18T16:47:16;38.05;;;18.63;;
18334;SDS011;9293;49.524;10.964;2022-12-18T16:49:44;37.05;;;18.27;;